Time;durP1;ratioP1;P1;durP2;ratioP2;P2;SDS_P1;SDS_P2;PMS_P1;PMS_P2;Temp;Humidity;BMP_temperature;BMP_pressure;BME280_temperature;BME280_humidity;BME280_pressure;Samples;Min_cycle;Max_cycle;Signal;HPM_P1;HPM_P2
2023/06/30 00:03:05;;;;;;;;;;;24.00;56.70;;;;;;10328858;28;94257;-66
2023/06/30 00:08:08;;;;;;;;;;;24.00;56.60;;;;;;10334582;28;94428;-65
2023/06/30 00:13:10;;;;;;;;;;;23.90;56.60;;;;;;10333849;28;93636;-66
2023/06/30 00:18:12;;;;;;;;;;;23.90;56.50;;;;;;10332802;28;94456;-65
2023/06/30 00:23:13;;;;;;;;;;;23.90;56.40;;;;;;10333226;28;93455;-66
2023/06/30 00:28:15;;;;;;;;;;;23.90;56.20;;;;;;10332837;28;94426;-65
2023/06/30 00:33:17;;;;;;;;;;;23.90;56.10;;;;;;10334055;28;92695;-66
2023/06/30 00:38:19;;;;;;;;;;;23.90;56.10;;;;;;10315585;28;93183;-66
2023/06/30 00:43:21;;;;;;;;;;;23.90;55.90;;;;;;10314344;28;93563;-66
2023/06/30 00:48:22;;;;;;;;;;;23.80;55.80;;;;;;10329080;28;96039;-66
2023/06/30 00:53:24;;;;;;;;;;;23.80;55.80;;;;;;10331848;28;93639;-66
2023/06/30 00:58:26;;;;;;;;;;;23.80;55.70;;;;;;10331340;28;94832;-65
2023/06/30 01:03:35;;;;;;;;;;;23.80;55.60;;;;;;10314437;28;94606;-66
2023/06/30 01:08:37;;;;;;;;;;;23.80;55.60;;;;;;10331572;28;94480;-66
2023/06/30 01:13:40;;;;;;;;;;;23.80;55.40;;;;;;10329847;28;94166;-66
2023/06/30 01:18:43;;;;;;;;;;;23.80;55.40;;;;;;10330791;28;93436;-65
2023/06/30 01:24:02;;;;;;;;;;;23.80;55.30;;;;;;10331801;28;92423;-66
2023/06/30 01:29:06;;;;;;;;;;;23.80;55.20;;;;;;10330224;28;93414;-66
2023/06/30 01:34:08;;;;;;;;;;;23.80;55.10;;;;;;10331222;28;93531;-66
2023/06/30 01:39:10;;;;;;;;;;;23.70;54.90;;;;;;10311337;28;96814;-65
2023/06/30 01:44:12;;;;;;;;;;;23.70;54.90;;;;;;10330265;28;93578;-66
2023/06/30 01:49:15;;;;;;;;;;;23.70;54.90;;;;;;10329940;28;93795;-66
2023/06/30 01:54:16;;;;;;;;;;;23.70;54.80;;;;;;10329765;28;94536;-67
2023/06/30 01:59:18;;;;;;;;;;;23.70;54.70;;;;;;10312366;28;94628;-66
2023/06/30 02:04:20;;;;;;;;;;;23.70;54.70;;;;;;10329387;28;93049;-66
2023/06/30 02:09:22;;;;;;;;;;;23.60;54.60;;;;;;10329204;28;94506;-66
2023/06/30 02:14:39;;;;;;;;;;;23.60;54.50;;;;;;10329523;28;93034;-65
2023/06/30 02:19:41;;;;;;;;;;;23.60;54.50;;;;;;10329570;28;93508;-66
2023/06/30 02:24:42;;;;;;;;;;;23.60;54.40;;;;;;10328826;28;94131;-65
2023/06/30 02:29:44;;;;;;;;;;;23.50;54.40;;;;;;10327148;28;97631;-66
2023/06/30 02:34:46;;;;;;;;;;;23.50;54.30;;;;;;10328088;28;93743;-66
2023/06/30 02:39:48;;;;;;;;;;;23.50;54.30;;;;;;10329411;28;94355;-65
2023/06/30 02:44:50;;;;;;;;;;;23.50;54.20;;;;;;10328815;28;95096;-66
2023/06/30 02:49:51;;;;;;;;;;;23.50;54.20;;;;;;10310432;28;94569;-66
2023/06/30 02:54:53;;;;;;;;;;;23.50;54.20;;;;;;10328007;28;95067;-66
2023/06/30 02:59:55;;;;;;;;;;;23.40;54.10;;;;;;10328549;28;93605;-64
2023/06/30 03:04:57;;;;;;;;;;;23.50;54.00;;;;;;10328789;28;93237;-64
2023/06/30 03:09:58;;;;;;;;;;;23.50;53.90;;;;;;10327983;28;93548;-66
2023/06/30 03:15:00;;;;;;;;;;;23.40;53.90;;;;;;10328020;28;93420;-66
2023/06/30 03:20:10;;;;;;;;;;;23.40;53.80;;;;;;10324542;28;96208;-65
2023/06/30 03:25:11;;;;;;;;;;;23.40;53.80;;;;;;10328240;28;94003;-66
2023/06/30 03:30:13;;;;;;;;;;;23.40;53.70;;;;;;10326663;28;93755;-66
2023/06/30 03:35:15;;;;;;;;;;;23.40;53.60;;;;;;10329329;28;94003;-65
2023/06/30 03:40:17;;;;;;;;;;;23.40;53.60;;;;;;10334708;28;93487;-66
2023/06/30 03:45:19;;;;;;;;;;;23.40;53.60;;;;;;10316711;28;94848;-66
2023/06/30 04:22:25;;;;;;;;;;;23.40;53.10;;;;;;10291157;28;94620;-66
2023/06/30 04:27:26;;;;;;;;;;;23.50;53.10;;;;;;10291789;28;93620;-66
2023/06/30 04:32:28;;;;;;;;;;;23.40;52.90;;;;;;10291012;28;93463;-66
2023/06/30 04:37:30;;;;;;;;;;;23.40;53.90;;;;;;10290983;28;93935;-66
2023/06/30 04:42:32;;;;;;;;;;;23.40;52.90;;;;;;10290860;28;94036;-65
2023/06/30 04:47:33;;;;;;;;;;;23.40;52.90;;;;;;10722276;22;94942;-61
2023/06/30 04:52:35;;;;;;;;;;;23.40;52.90;;;;;;10332422;28;93564;-61
2023/06/30 04:57:37;;;;;;;;;;;23.40;52.90;;;;;;10332013;28;94450;-61
2023/06/30 05:02:38;;;;;;;;;;;23.40;52.80;;;;;;10330488;28;94494;-68
2023/06/30 05:07:40;;;;;;;;;;;23.40;52.90;;;;;;10329652;28;96331;-69
2023/06/30 05:12:42;;;;;;;;;;;23.40;53.10;;;;;;10331289;28;93555;-68
2023/06/30 05:17:44;;;;;;;;;;;23.40;53.20;;;;;;10313917;28;93711;-68
2023/06/30 05:22:45;;;;;;;;;;;23.40;53.30;;;;;;10314563;28;94558;-61
2023/06/30 05:27:47;;;;;;;;;;;23.40;53.30;;;;;;10330867;28;94523;-68
2023/06/30 05:32:49;;;;;;;;;;;23.40;53.30;;;;;;10329384;28;93659;-61
2023/06/30 05:37:50;;;;;;;;;;;23.40;53.30;;;;;;10329183;28;94939;-61
2023/06/30 05:42:52;;;;;;;;;;;23.40;53.30;;;;;;10331431;28;95498;-62
2023/06/30 05:47:54;;;;;;;;;;;23.40;53.30;;;;;;10327604;28;93544;-68
2023/06/30 05:52:58;;;;;;;;;;;23.40;53.50;;;;;;10328938;28;93487;-68
2023/06/30 05:58:00;;;;;;;;;;;23.40;53.70;;;;;;10310068;28;96876;-68
2023/06/30 06:03:01;;;;;;;;;;;23.40;54.20;;;;;;10331130;28;94644;-67
2023/06/30 06:08:03;;;;;;;;;;;23.40;56.10;;;;;;10330321;28;94633;-68
2023/06/30 06:13:05;;;;;;;;;;;23.50;55.40;;;;;;10329837;28;94466;-65
2023/06/30 06:18:07;;;;;;;;;;;23.50;55.50;;;;;;10329201;28;94438;-61
2023/06/30 06:23:09;;;;;;;;;;;23.50;55.30;;;;;;10328712;28;94508;-66
2023/06/30 06:28:10;;;;;;;;;;;23.50;55.30;;;;;;10311735;28;94850;-68
2023/06/30 06:33:12;;;;;;;;;;;23.60;55.00;;;;;;10329126;28;93069;-67
2023/06/30 06:38:15;;;;;;;;;;;23.60;55.00;;;;;;10311073;28;94293;-67
2023/06/30 06:43:17;;;;;;;;;;;23.60;55.00;;;;;;10328871;28;93866;-67
2023/06/30 06:48:20;;;;;;;;;;;23.70;55.10;;;;;;10325743;28;96080;-67
2023/06/30 06:53:29;;;;;;;;;;;23.70;54.90;;;;;;10329234;28;94292;-62
2023/06/30 06:58:32;;;;;;;;;;;23.70;54.80;;;;;;10328162;28;94466;-62
2023/06/30 07:03:34;;;;;;;;;;;23.80;54.60;;;;;;10327423;28;93466;-61
2023/06/30 07:08:36;;;;;;;;;;;23.80;54.50;;;;;;10327514;28;94287;-60
2023/06/30 07:13:38;;;;;;;;;;;23.80;54.30;;;;;;10326494;28;93289;-62
2023/06/30 07:18:40;;;;;;;;;;;23.80;54.20;;;;;;10309675;28;94529;-61
2023/06/30 07:23:42;;;;;;;;;;;23.80;54.10;;;;;;10311205;28;92844;-68
2023/06/30 07:28:43;;;;;;;;;;;23.80;53.90;;;;;;10328251;28;93468;-68
2023/06/30 07:33:45;;;;;;;;;;;23.80;53.80;;;;;;10326671;28;92870;-62
2023/06/30 07:38:47;;;;;;;;;;;23.90;53.80;;;;;;10325479;28;96006;-67
2023/06/30 07:43:48;;;;;;;;;;;23.80;53.80;;;;;;10327243;28;93697;-67
2023/06/30 07:48:50;;;;;;;;;;;23.80;53.80;;;;;;10326593;28;94487;-67
2023/06/30 07:53:52;;;;;;;;;;;23.70;53.50;;;;;;10327537;28;95257;-67
2023/06/30 07:58:53;;;;;;;;;;;23.80;53.70;;;;;;10326984;28;93492;-62
2023/06/30 08:03:55;;;;;;;;;;;23.80;53.60;;;;;;10308624;28;94612;-61
2023/06/30 08:08:58;;;;;;;;;;;23.80;53.50;;;;;;10326695;28;93217;-61
2023/06/30 08:14:01;;;;;;;;;;;23.80;53.40;;;;;;10325911;28;92992;-61
2023/06/30 08:19:03;;;;;;;;;;;23.80;53.50;;;;;;10326416;28;94468;-61
2023/06/30 08:24:05;;;;;;;;;;;23.80;53.40;;;;;;10329271;28;94446;-61
2023/06/30 08:29:07;;;;;;;;;;;23.80;53.30;;;;;;10329776;28;95899;-61
2023/06/30 08:34:10;;;;;;;;;;;23.80;53.30;;;;;;10333393;28;94774;-62
2023/06/30 08:39:13;;;;;;;;;;;23.90;53.20;;;;;;10333183;28;94676;-61
2023/06/30 08:44:14;;;;;;;;;;;23.90;53.20;;;;;;10331703;28;93459;-62
2023/06/30 08:49:16;;;;;;;;;;;23.90;52.90;;;;;;10332108;28;93884;-61
2023/06/30 08:54:18;;;;;;;;;;;24.00;52.80;;;;;;10331803;28;92491;-62
2023/06/30 08:59:20;;;;;;;;;;;23.90;52.70;;;;;;10329108;28;93668;-61
2023/06/30 09:04:22;;;;;;;;;;;24.00;52.60;;;;;;10311117;28;94280;-61
2023/06/30 09:09:26;;;;;;;;;;;23.90;52.50;;;;;;10328215;28;94513;-61
2023/06/30 09:14:33;;;;;;;;;;;23.90;52.30;;;;;;10330385;28;93527;-61
2023/06/30 09:19:35;;;;;;;;;;;23.90;52.30;;;;;;10328637;28;94977;-61
2023/06/30 09:24:37;;;;;;;;;;;23.80;52.30;;;;;;10330204;28;92600;-61
2023/06/30 09:29:39;;;;;;;;;;;23.80;52.30;;;;;;10312845;28;93692;-61
2023/06/30 09:34:41;;;;;;;;;;;23.80;52.30;;;;;;10329684;28;93510;-61
2023/06/30 09:39:49;;;;;;;;;;;23.80;52.30;;;;;;10330889;28;93839;-61
2023/06/30 09:44:52;;;;;;;;;;;23.80;52.30;;;;;;10330372;28;94712;-61
2023/06/30 09:49:54;;;;;;;;;;;23.80;52.20;;;;;;10311421;28;93462;-61
2023/06/30 09:54:55;;;;;;;;;;;23.80;52.30;;;;;;10331246;28;92137;-61
2023/06/30 09:59:59;;;;;;;;;;;23.80;50.30;;;;;;10331036;28;92526;-61
2023/06/30 10:05:00;;;;;;;;;;;23.70;50.00;;;;;;10330886;28;96157;-61
2023/06/30 10:10:03;;;;;;;;;;;23.80;50.20;;;;;;10327273;28;95856;-60
2023/06/30 10:15:06;;;;;;;;;;;23.80;50.20;;;;;;10329332;28;93654;-61
2023/06/30 10:20:08;;;;;;;;;;;23.80;50.30;;;;;;10329234;28;94420;-61
2023/06/30 10:25:11;;;;;;;;;;;23.80;50.20;;;;;;10328989;28;92678;-61
2023/06/30 10:30:13;;;;;;;;;;;23.80;50.30;;;;;;10329496;28;93592;-61
2023/06/30 10:35:15;;;;;;;;;;;23.80;50.50;;;;;;10329615;28;94508;-60
2023/06/30 10:40:26;;;;;;;;;;;23.80;50.60;;;;;;10328163;28;93430;-61
2023/06/30 10:45:30;;;;;;;;;;;23.80;50.70;;;;;;10329134;28;95709;-61
2023/06/30 10:50:39;;;;;;;;;;;23.70;50.80;;;;;;10327261;28;94732;-61
2023/06/30 10:55:42;;;;;;;;;;;23.70;50.90;;;;;;10327407;28;92866;-62
2023/06/30 11:01:01;;;;;;;;;;;23.70;51.40;;;;;;10325560;28;96065;-61
2023/06/30 11:06:15;;;;;;;;;;;23.80;51.40;;;;;;10327981;28;94560;-61
2023/06/30 11:11:17;;;;;;;;;;;23.80;51.20;;;;;;10327701;28;94578;-62
2023/06/30 11:16:19;;;;;;;;;;;23.80;51.00;;;;;;10327572;28;93383;-67
2023/06/30 11:21:21;;;;;;;;;;;23.80;51.00;;;;;;10326285;28;93804;-68
2023/06/30 11:26:23;;;;;;;;;;;23.80;50.90;;;;;;10327345;28;93537;-68
2023/06/30 11:31:24;;;;;;;;;;;23.80;50.70;;;;;;10326549;28;93552;-68
2023/06/30 11:36:29;;;;;;;;;;;23.80;50.70;;;;;;10327655;28;92698;-67
2023/06/30 11:41:32;;;;;;;;;;;23.80;50.70;;;;;;10327232;28;94868;-67
2023/06/30 11:46:36;;;;;;;;;;;23.80;50.70;;;;;;10327618;28;94546;-67
2023/06/30 11:51:38;;;;;;;;;;;23.90;50.80;;;;;;10323691;28;96800;-67
2023/06/30 11:56:39;;;;;;;;;;;23.90;50.80;;;;;;10328348;28;93075;-68
2023/06/30 12:01:41;;;;;;;;;;;23.80;50.90;;;;;;10333626;28;94637;-68
2023/06/30 12:06:46;;;;;;;;;;;23.80;52.10;;;;;;10333309;28;93515;-65
2023/06/30 12:11:48;;;;;;;;;;;23.90;51.80;;;;;;10297325;28;94547;-65
2023/06/30 12:16:53;;;;;;;;;;;23.90;51.60;;;;;;10315024;28;95960;-65
2023/06/30 12:21:56;;;;;;;;;;;23.90;50.60;;;;;;10333022;28;93772;-65
2023/06/30 12:26:57;;;;;;;;;;;23.90;49.30;;;;;;10332451;28;92845;-65
2023/06/30 12:31:59;;;;;;;;;;;23.80;48.10;;;;;;10331185;28;93830;-65
2023/06/30 12:37:02;;;;;;;;;;;23.80;48.20;;;;;;10330948;28;94776;-65
2023/06/30 12:42:04;;;;;;;;;;;23.80;48.20;;;;;;10329183;28;95925;-65
2023/06/30 12:47:06;;;;;;;;;;;23.70;47.20;;;;;;10330738;28;93630;-65
2023/06/30 12:52:07;;;;;;;;;;;23.70;47.90;;;;;;10330889;28;94632;-66
2023/06/30 12:57:09;;;;;;;;;;;23.70;48.70;;;;;;10332776;28;93233;-66
2023/06/30 13:02:11;;;;;;;;;;;23.70;49.70;;;;;;10331561;28;93662;-66
2023/06/30 13:07:12;;;;;;;;;;;23.80;49.80;;;;;;10331974;28;95056;-67
2023/06/30 13:12:25;;;;;;;;;;;23.80;50.10;;;;;;10330024;28;93982;-66
2023/06/30 13:17:27;;;;;;;;;;;23.80;50.90;;;;;;10331232;28;92886;-66
2023/06/30 13:22:29;;;;;;;;;;;23.80;49.10;;;;;;10326990;28;94401;-66
2023/06/30 13:27:31;;;;;;;;;;;23.80;49.60;;;;;;10326729;28;94829;-66
2023/06/30 13:32:32;;;;;;;;;;;23.80;49.60;;;;;;10326063;28;96032;-66
2023/06/30 13:37:34;;;;;;;;;;;23.80;49.70;;;;;;10312072;28;94528;-66
2023/06/30 13:42:36;;;;;;;;;;;23.80;49.90;;;;;;10330170;28;93303;-66
2023/06/30 13:47:38;;;;;;;;;;;23.80;50.00;;;;;;10328957;28;93498;-66
2023/06/30 13:52:39;;;;;;;;;;;23.80;50.10;;;;;;10329255;28;93073;-66
2023/06/30 13:57:41;;;;;;;;;;;23.80;50.20;;;;;;10330476;28;94614;-66
2023/06/30 14:02:43;;;;;;;;;;;23.80;50.30;;;;;;10330976;28;94882;-61
2023/06/30 14:07:45;;;;;;;;;;;23.80;50.40;;;;;;10331220;28;93724;-61
2023/06/30 14:12:47;;;;;;;;;;;23.80;50.30;;;;;;10331334;28;93733;-60
2023/06/30 14:17:49;;;;;;;;;;;23.80;50.40;;;;;;10329109;28;94647;-61
2023/06/30 14:22:50;;;;;;;;;;;23.90;50.60;;;;;;10324540;28;95848;-61
2023/06/30 14:27:52;;;;;;;;;;;23.90;50.50;;;;;;10330000;28;94272;-61
2023/06/30 14:32:54;;;;;;;;;;;23.90;50.50;;;;;;10327908;28;92922;-61
2023/06/30 14:37:57;;;;;;;;;;;23.90;50.70;;;;;;10328551;28;93539;-60
2023/06/30 14:42:59;;;;;;;;;;;23.90;50.70;;;;;;10328569;28;94128;-60
2023/06/30 14:48:01;;;;;;;;;;;23.90;50.70;;;;;;10326947;28;94474;-61
2023/06/30 14:53:02;;;;;;;;;;;23.90;50.70;;;;;;10328460;28;93961;-61
2023/06/30 14:58:07;;;;;;;;;;;23.80;50.70;;;;;;10328508;28;93332;-62
2023/06/30 15:03:09;;;;;;;;;;;23.80;50.80;;;;;;10309284;28;93756;-61
2023/06/30 15:08:11;;;;;;;;;;;23.80;50.90;;;;;;10310712;28;94748;-61
2023/06/30 15:13:13;;;;;;;;;;;23.80;51.00;;;;;;10307493;28;96272;-66
2023/06/30 15:18:15;;;;;;;;;;;23.80;50.90;;;;;;10328091;28;93483;-67
2023/06/30 15:23:17;;;;;;;;;;;23.80;51.00;;;;;;10310335;28;94418;-66
2023/06/30 15:28:19;;;;;;;;;;;23.80;51.10;;;;;;10326614;28;94045;-67
2023/06/30 15:33:20;;;;;;;;;;;23.80;51.20;;;;;;10312618;28;94469;-67
2023/06/30 15:38:22;;;;;;;;;;;23.70;51.10;;;;;;10318190;28;94618;-66
2023/06/30 15:43:24;;;;;;;;;;;23.70;51.10;;;;;;10316243;28;93544;-67
2023/06/30 15:48:26;;;;;;;;;;;23.70;51.10;;;;;;10333847;28;92854;-61
2023/06/30 15:53:27;;;;;;;;;;;23.70;51.20;;;;;;10334038;28;93472;-61
2023/06/30 15:58:29;;;;;;;;;;;23.70;51.30;;;;;;10316243;28;93557;-61
2023/06/30 16:03:31;;;;;;;;;;;23.70;51.30;;;;;;10332137;28;96962;-61
2023/06/30 16:08:32;;;;;;;;;;;23.70;51.40;;;;;;10333915;28;93747;-61
2023/06/30 16:13:34;;;;;;;;;;;23.70;51.50;;;;;;10335137;28;94436;-61
2023/06/30 16:18:36;;;;;;;;;;;23.70;51.60;;;;;;10334073;28;95031;-61
2023/06/30 16:23:38;;;;;;;;;;;23.70;51.50;;;;;;10334522;28;94618;-61
2023/06/30 16:28:40;;;;;;;;;;;23.70;51.40;;;;;;10333977;28;94101;-62
2023/06/30 16:33:41;;;;;;;;;;;23.70;51.50;;;;;;10315567;28;94257;-61
2023/06/30 16:38:43;;;;;;;;;;;23.70;51.40;;;;;;10315256;28;93687;-61
2023/06/30 16:43:45;;;;;;;;;;;23.70;51.40;;;;;;10331104;28;93672;-61
2023/06/30 16:48:47;;;;;;;;;;;23.70;51.40;;;;;;10331774;28;94402;-61
2023/06/30 16:53:48;;;;;;;;;;;23.70;51.40;;;;;;10311351;28;96909;-61
2023/06/30 16:58:50;;;;;;;;;;;23.70;51.40;;;;;;10332662;28;93603;-61
2023/06/30 17:03:54;;;;;;;;;;;23.80;51.40;;;;;;10331878;28;94321;-61
2023/06/30 17:08:56;;;;;;;;;;;23.70;51.40;;;;;;10331751;28;93589;-61
2023/06/30 17:13:57;;;;;;;;;;;23.80;51.40;;;;;;10331455;28;93630;-61
2023/06/30 17:18:59;;;;;;;;;;;23.80;51.40;;;;;;10331476;28;93566;-66
2023/06/30 17:24:01;;;;;;;;;;;23.80;51.40;;;;;;10331162;28;93468;-65
2023/06/30 17:29:02;;;;;;;;;;;23.70;51.40;;;;;;10332350;28;93851;-66
2023/06/30 17:34:04;;;;;;;;;;;23.80;51.40;;;;;;10331299;28;92954;-66
2023/06/30 17:39:06;;;;;;;;;;;23.80;51.40;;;;;;10312510;28;93553;-66
2023/06/30 17:44:07;;;;;;;;;;;23.70;51.30;;;;;;10328283;28;96888;-66
2023/06/30 17:49:20;;;;;;;;;;;23.70;51.30;;;;;;10329682;28;93701;-66
2023/06/30 17:54:22;;;;;;;;;;;23.70;51.20;;;;;;10329794;28;94144;-65
2023/06/30 17:59:26;;;;;;;;;;;23.70;51.20;;;;;;10296358;28;94232;-66
2023/06/30 18:04:28;;;;;;;;;;;23.70;51.30;;;;;;10330199;28;94640;-66
2023/06/30 18:09:30;;;;;;;;;;;23.70;51.40;;;;;;10330233;28;94054;-66
2023/06/30 18:14:32;;;;;;;;;;;23.70;51.20;;;;;;10329233;28;93571;-66
2023/06/30 18:19:33;;;;;;;;;;;23.70;51.30;;;;;;10330258;28;94068;-65
2023/06/30 18:24:35;;;;;;;;;;;23.70;51.40;;;;;;10329766;28;93508;-66
2023/06/30 18:29:39;;;;;;;;;;;23.70;51.30;;;;;;10329779;28;93475;-65
2023/06/30 18:34:43;;;;;;;;;;;23.70;51.30;;;;;;10326899;28;97123;-65
2023/06/30 18:39:45;;;;;;;;;;;23.70;51.30;;;;;;10312475;28;94380;-66
2023/06/30 18:44:47;;;;;;;;;;;23.60;51.40;;;;;;10328714;28;94435;-65
2023/06/30 18:49:48;;;;;;;;;;;23.60;51.40;;;;;;10327261;28;93589;-67
2023/06/30 18:54:50;;;;;;;;;;;23.60;51.40;;;;;;10329289;28;94815;-66
2023/06/30 18:59:54;;;;;;;;;;;23.60;51.50;;;;;;10328396;28;92953;-66
2023/06/30 19:04:56;;;;;;;;;;;23.60;51.50;;;;;;10328897;28;94348;-66
2023/06/30 19:09:57;;;;;;;;;;;23.60;51.50;;;;;;10328325;28;93688;-67
2023/06/30 19:14:59;;;;;;;;;;;23.60;51.50;;;;;;10327089;28;94567;-66
2023/06/30 19:20:01;;;;;;;;;;;23.50;51.40;;;;;;10328863;28;95058;-66
2023/06/30 19:25:03;;;;;;;;;;;23.50;51.40;;;;;;10324911;28;97025;-66
2023/06/30 19:30:06;;;;;;;;;;;23.50;51.40;;;;;;10309736;28;93751;-66
2023/06/30 19:35:08;;;;;;;;;;;23.50;51.20;;;;;;10327684;28;94440;-66
2023/06/30 19:40:09;;;;;;;;;;;23.50;51.30;;;;;;10328293;28;94711;-66
2023/06/30 19:45:11;;;;;;;;;;;23.50;51.20;;;;;;10327261;28;94270;-66
2023/06/30 19:50:13;;;;;;;;;;;23.50;51.20;;;;;;10309557;28;94437;-66
2023/06/30 19:55:15;;;;;;;;;;;23.50;51.20;;;;;;10326839;28;94463;-66
2023/06/30 20:00:17;;;;;;;;;;;23.50;51.20;;;;;;10327670;28;92885;-65
2023/06/30 20:05:19;;;;;;;;;;;23.50;51.00;;;;;;10327217;28;93493;-65
2023/06/30 20:10:21;;;;;;;;;;;23.50;51.00;;;;;;10327444;28;94579;-66
2023/06/30 20:15:23;;;;;;;;;;;23.40;50.90;;;;;;10324283;28;97247;-66
2023/06/30 20:20:26;;;;;;;;;;;23.50;50.80;;;;;;10330859;28;93523;-67
2023/06/30 20:25:28;;;;;;;;;;;23.50;50.90;;;;;;10334189;28;93578;-66
2023/06/30 20:30:29;;;;;;;;;;;23.50;50.80;;;;;;10333822;28;93727;-65
2023/06/30 20:35:31;;;;;;;;;;;23.50;50.70;;;;;;10332715;28;94683;-66
2023/06/30 20:40:33;;;;;;;;;;;23.50;50.80;;;;;;10333055;28;94701;-67
2023/06/30 20:45:35;;;;;;;;;;;23.50;50.60;;;;;;10333268;28;93538;-66
2023/06/30 20:50:37;;;;;;;;;;;23.50;50.60;;;;;;10333055;28;93869;-66
2023/06/30 20:55:38;;;;;;;;;;;23.50;50.80;;;;;;10332891;28;93602;-66
2023/06/30 21:00:40;;;;;;;;;;;23.50;50.60;;;;;;10333081;28;94664;-66
2023/06/30 21:05:42;;;;;;;;;;;23.50;50.70;;;;;;10312088;28;96870;-66
2023/06/30 21:10:44;;;;;;;;;;;23.50;50.70;;;;;;10298043;28;94530;-66
2023/06/30 21:15:46;;;;;;;;;;;23.50;50.50;;;;;;10314116;28;94513;-67
2023/06/30 21:20:48;;;;;;;;;;;23.50;50.70;;;;;;10297709;28;94493;-66
2023/06/30 21:25:52;;;;;;;;;;;23.50;50.50;;;;;;10331694;28;94569;-66
2023/06/30 21:30:56;;;;;;;;;;;23.50;50.60;;;;;;10312593;28;94492;-66
2023/06/30 21:35:58;;;;;;;;;;;23.50;50.50;;;;;;10330098;28;93512;-65
2023/06/30 21:41:01;;;;;;;;;;;23.50;50.50;;;;;;10314651;28;93792;-67
2023/06/30 21:46:13;;;;;;;;;;;23.40;50.40;;;;;;10330857;28;93586;-67
2023/06/30 21:51:15;;;;;;;;;;;23.40;51.40;;;;;;10287208;28;94629;-67
2023/06/30 21:56:17;;;;;;;;;;;23.40;50.40;;;;;;10287425;28;95629;-67
2023/06/30 22:01:18;;;;;;;;;;;23.40;50.50;;;;;;10288636;28;94148;-65
2023/06/30 22:06:26;;;;;;;;;;;23.40;50.50;;;;;;10288519;28;93744;-66
2023/06/30 22:11:27;;;;;;;;;;;23.40;50.40;;;;;;10288743;28;93485;-66
2023/06/30 22:16:29;;;;;;;;;;;23.40;50.30;;;;;;10288557;28;93420;-65
2023/06/30 22:21:31;;;;;;;;;;;23.40;50.60;;;;;;10288397;28;93439;-66
2023/06/30 22:26:33;;;;;;;;;;;23.40;50.40;;;;;;10288796;28;92800;-66
2023/06/30 22:31:34;;;;;;;;;;;23.40;50.40;;;;;;10289580;28;92966;-65
2023/06/30 22:36:36;;;;;;;;;;;23.40;50.50;;;;;;10288876;28;94161;-66
2023/06/30 22:41:38;;;;;;;;;;;23.30;50.40;;;;;;10287539;28;92860;-65
2023/06/30 22:46:39;;;;;;;;;;;23.30;50.40;;;;;;10285846;28;97320;-66
2023/06/30 22:51:41;;;;;;;;;;;23.30;50.40;;;;;;10323990;28;94612;-66
2023/06/30 22:56:45;;;;;;;;;;;23.40;50.50;;;;;;10327733;28;113913;-65
2023/06/30 23:01:47;;;;;;;;;;;23.30;50.50;;;;;;10329403;28;93382;-65
2023/06/30 23:06:48;;;;;;;;;;;23.30;50.70;;;;;;10328595;28;93405;-65
2023/06/30 23:11:50;;;;;;;;;;;23.30;50.70;;;;;;10309699;28;93439;-65
2023/06/30 23:16:52;;;;;;;;;;;23.30;50.70;;;;;;10327748;28;93587;-66
2023/06/30 23:22:05;;;;;;;;;;;23.30;50.70;;;;;;10328988;28;93741;-65
2023/06/30 23:27:07;;;;;;;;;;;23.30;50.70;;;;;;10327890;28;93552;-65
2023/06/30 23:32:09;;;;;;;;;;;23.30;50.60;;;;;;10309817;28;93854;-66
2023/06/30 23:37:13;;;;;;;;;;;23.30;50.70;;;;;;10308826;28;97222;-65
2023/06/30 23:42:14;;;;;;;;;;;23.30;50.60;;;;;;10309991;28;93568;-66
2023/06/30 23:47:16;;;;;;;;;;;23.30;50.60;;;;;;10327272;28;94734;-66
2023/06/30 23:52:18;;;;;;;;;;;23.40;50.70;;;;;;10285506;28;94748;-66
2023/06/30 23:57:20;;;;;;;;;;;23.30;50.70;;;;;;10292446;28;93510;-66
